sensor_id;sensor_type;location;lat;lon;timestamp;P1;durP1;ratioP1;P2;durP2;ratioP2
8704;SDS011;4389;41.932;25.904;2022-12-10T00:01:24;42.47;;;24.03;;
8704;SDS011;4389;41.932;25.904;2022-12-10T00:03:53;40.07;;;23.10;;
8704;SDS011;4389;41.932;25.904;2022-12-10T00:06:21;44.37;;;23.83;;
8704;SDS011;4389;41.932;25.904;2022-12-10T00:08:48;45.13;;;25.80;;
8704;SDS011;4389;41.932;25.904;2022-12-10T00:11:16;49.63;;;27.37;;
8704;SDS011;4389;41.932;25.904;2022-12-10T00:13:45;45.83;;;24.63;;
8704;SDS011;4389;41.932;25.904;2022-12-10T00:16:14;47.23;;;25.37;;
8704;SDS011;4389;41.932;25.904;2022-12-10T00:18:44;48.83;;;26.10;;
8704;SDS011;4389;41.932;25.904;2022-12-10T00:21:12;45.80;;;26.80;;
8704;SDS011;4389;41.932;25.904;2022-12-10T00:23:49;43.00;;;23.70;;
8704;SDS011;4389;41.932;25.904;2022-12-10T00:26:16;43.93;;;26.00;;
8704;SDS011;4389;41.932;25.904;2022-12-10T00:28:45;38.03;;;22.67;;
8704;SDS011;4389;41.932;25.904;2022-12-10T00:31:13;37.83;;;23.97;;
8704;SDS011;4389;41.932;25.904;2022-12-10T00:33:41;39.33;;;23.53;;
8704;SDS011;4389;41.932;25.904;2022-12-10T00:36:11;39.90;;;24.53;;
8704;SDS011;4389;41.932;25.904;2022-12-10T00:38:39;45.67;;;26.53;;
8704;SDS011;4389;41.932;25.904;2022-12-10T00:41:07;47.47;;;26.60;;
8704;SDS011;4389;41.932;25.904;2022-12-10T00:43:35;44.10;;;27.13;;
8704;SDS011;4389;41.932;25.904;2022-12-10T00:46:02;47.00;;;29.50;;
8704;SDS011;4389;41.932;25.904;2022-12-10T00:48:29;45.33;;;28.67;;
8704;SDS011;4389;41.932;25.904;2022-12-10T00:50:59;34.80;;;23.83;;
8704;SDS011;4389;41.932;25.904;2022-12-10T00:53:27;39.00;;;25.30;;
8704;SDS011;4389;41.932;25.904;2022-12-10T00:55:55;40.73;;;25.23;;
8704;SDS011;4389;41.932;25.904;2022-12-10T00:58:23;37.80;;;24.23;;
8704;SDS011;4389;41.932;25.904;2022-12-10T01:00:52;39.40;;;25.37;;
8704;SDS011;4389;41.932;25.904;2022-12-10T01:03:19;40.97;;;24.47;;
8704;SDS011;4389;41.932;25.904;2022-12-10T01:05:46;38.50;;;24.80;;
8704;SDS011;4389;41.932;25.904;2022-12-10T01:08:14;40.37;;;25.90;;
8704;SDS011;4389;41.932;25.904;2022-12-10T01:10:41;35.80;;;24.03;;
8704;SDS011;4389;41.932;25.904;2022-12-10T01:13:08;35.70;;;22.60;;
8704;SDS011;4389;41.932;25.904;2022-12-10T01:15:36;33.57;;;21.70;;
8704;SDS011;4389;41.932;25.904;2022-12-10T01:18:04;30.60;;;20.97;;
8704;SDS011;4389;41.932;25.904;2022-12-10T01:20:34;38.30;;;23.03;;
8704;SDS011;4389;41.932;25.904;2022-12-10T01:23:02;39.97;;;23.40;;
8704;SDS011;4389;41.932;25.904;2022-12-10T01:25:31;33.40;;;22.00;;
8704;SDS011;4389;41.932;25.904;2022-12-10T01:27:58;42.60;;;25.57;;
8704;SDS011;4389;41.932;25.904;2022-12-10T01:30:24;33.27;;;22.97;;
8704;SDS011;4389;41.932;25.904;2022-12-10T01:32:51;37.63;;;23.87;;
8704;SDS011;4389;41.932;25.904;2022-12-10T01:35:18;45.77;;;25.40;;
8704;SDS011;4389;41.932;25.904;2022-12-10T01:37:45;43.17;;;23.80;;
8704;SDS011;4389;41.932;25.904;2022-12-10T01:40:12;41.07;;;24.60;;
8704;SDS011;4389;41.932;25.904;2022-12-10T01:42:40;39.43;;;23.80;;
8704;SDS011;4389;41.932;25.904;2022-12-10T01:45:08;42.93;;;24.53;;
8704;SDS011;4389;41.932;25.904;2022-12-10T01:47:38;35.90;;;22.17;;
8704;SDS011;4389;41.932;25.904;2022-12-10T01:50:06;36.73;;;23.20;;
8704;SDS011;4389;41.932;25.904;2022-12-10T01:52:34;43.53;;;24.43;;
8704;SDS011;4389;41.932;25.904;2022-12-10T01:55:05;37.47;;;23.97;;
8704;SDS011;4389;41.932;25.904;2022-12-10T01:57:35;40.27;;;23.97;;
8704;SDS011;4389;41.932;25.904;2022-12-10T02:00:04;36.60;;;23.60;;
8704;SDS011;4389;41.932;25.904;2022-12-10T02:02:35;34.83;;;23.13;;
8704;SDS011;4389;41.932;25.904;2022-12-10T02:05:13;36.13;;;23.27;;
8704;SDS011;4389;41.932;25.904;2022-12-10T02:07:51;32.97;;;22.87;;
8704;SDS011;4389;41.932;25.904;2022-12-10T02:10:32;36.47;;;22.90;;
8704;SDS011;4389;41.932;25.904;2022-12-10T02:13:10;39.97;;;23.60;;
8704;SDS011;4389;41.932;25.904;2022-12-10T02:15:46;39.67;;;23.73;;
8704;SDS011;4389;41.932;25.904;2022-12-10T02:18:18;40.30;;;24.17;;
8704;SDS011;4389;41.932;25.904;2022-12-10T02:20:48;42.13;;;24.23;;
8704;SDS011;4389;41.932;25.904;2022-12-10T02:23:19;38.07;;;23.23;;
8704;SDS011;4389;41.932;25.904;2022-12-10T02:25:52;37.87;;;22.30;;
8704;SDS011;4389;41.932;25.904;2022-12-10T02:28:25;34.40;;;22.90;;
8704;SDS011;4389;41.932;25.904;2022-12-10T02:31:02;35.97;;;23.60;;
8704;SDS011;4389;41.932;25.904;2022-12-10T02:33:31;36.17;;;23.80;;
8704;SDS011;4389;41.932;25.904;2022-12-10T02:36:01;34.03;;;22.50;;
8704;SDS011;4389;41.932;25.904;2022-12-10T02:38:30;37.87;;;22.23;;
8704;SDS011;4389;41.932;25.904;2022-12-10T02:41:01;37.37;;;24.37;;
8704;SDS011;4389;41.932;25.904;2022-12-10T02:43:31;42.40;;;23.00;;
8704;SDS011;4389;41.932;25.904;2022-12-10T02:45:59;39.30;;;23.83;;
8704;SDS011;4389;41.932;25.904;2022-12-10T02:48:31;38.30;;;24.57;;
8704;SDS011;4389;41.932;25.904;2022-12-10T02:51:01;38.83;;;25.00;;
8704;SDS011;4389;41.932;25.904;2022-12-10T02:53:28;33.57;;;24.13;;
8704;SDS011;4389;41.932;25.904;2022-12-10T02:55:58;32.87;;;22.20;;
8704;SDS011;4389;41.932;25.904;2022-12-10T02:58:36;39.47;;;24.87;;
8704;SDS011;4389;41.932;25.904;2022-12-10T03:01:18;40.53;;;27.83;;
8704;SDS011;4389;41.932;25.904;2022-12-10T03:03:52;33.73;;;23.53;;
8704;SDS011;4389;41.932;25.904;2022-12-10T03:06:24;37.80;;;23.53;;
8704;SDS011;4389;41.932;25.904;2022-12-10T03:08:59;39.63;;;23.93;;
8704;SDS011;4389;41.932;25.904;2022-12-10T03:11:29;35.43;;;23.77;;
8704;SDS011;4389;41.932;25.904;2022-12-10T03:13:58;34.23;;;22.13;;
8704;SDS011;4389;41.932;25.904;2022-12-10T03:16:31;39.27;;;23.87;;
8704;SDS011;4389;41.932;25.904;2022-12-10T03:19:02;35.10;;;24.13;;
8704;SDS011;4389;41.932;25.904;2022-12-10T03:21:31;33.90;;;22.70;;
8704;SDS011;4389;41.932;25.904;2022-12-10T03:24:01;36.03;;;23.40;;
8704;SDS011;4389;41.932;25.904;2022-12-10T03:26:29;32.10;;;22.50;;
8704;SDS011;4389;41.932;25.904;2022-12-10T03:28:58;32.57;;;21.67;;
8704;SDS011;4389;41.932;25.904;2022-12-10T03:31:31;33.90;;;22.40;;
8704;SDS011;4389;41.932;25.904;2022-12-10T03:34:00;31.57;;;21.97;;
8704;SDS011;4389;41.932;25.904;2022-12-10T03:36:28;34.43;;;22.10;;
8704;SDS011;4389;41.932;25.904;2022-12-10T03:38:56;37.50;;;22.80;;
8704;SDS011;4389;41.932;25.904;2022-12-10T03:41:24;33.23;;;23.67;;
8704;SDS011;4389;41.932;25.904;2022-12-10T03:43:52;35.30;;;23.37;;
8704;SDS011;4389;41.932;25.904;2022-12-10T03:46:20;35.53;;;23.57;;
8704;SDS011;4389;41.932;25.904;2022-12-10T03:48:49;34.70;;;24.40;;
8704;SDS011;4389;41.932;25.904;2022-12-10T03:51:16;35.93;;;24.13;;
8704;SDS011;4389;41.932;25.904;2022-12-10T03:53:43;33.60;;;22.97;;
8704;SDS011;4389;41.932;25.904;2022-12-10T03:56:09;33.43;;;22.67;;
8704;SDS011;4389;41.932;25.904;2022-12-10T03:58:36;37.33;;;25.87;;
8704;SDS011;4389;41.932;25.904;2022-12-10T04:01:03;33.20;;;22.90;;
8704;SDS011;4389;41.932;25.904;2022-12-10T04:03:30;36.17;;;24.83;;
8704;SDS011;4389;41.932;25.904;2022-12-10T04:06:03;32.13;;;23.37;;
8704;SDS011;4389;41.932;25.904;2022-12-10T04:08:30;37.50;;;24.63;;
8704;SDS011;4389;41.932;25.904;2022-12-10T04:11:01;37.37;;;24.27;;
8704;SDS011;4389;41.932;25.904;2022-12-10T04:13:31;36.90;;;24.60;;
8704;SDS011;4389;41.932;25.904;2022-12-10T04:16:16;38.70;;;24.00;;
8704;SDS011;4389;41.932;25.904;2022-12-10T04:18:55;32.57;;;23.03;;
8704;SDS011;4389;41.932;25.904;2022-12-10T04:21:24;39.07;;;24.77;;
8704;SDS011;4389;41.932;25.904;2022-12-10T04:24:10;35.10;;;23.47;;
8704;SDS011;4389;41.932;25.904;2022-12-10T04:26:55;34.50;;;22.87;;
8704;SDS011;4389;41.932;25.904;2022-12-10T04:29:24;36.83;;;24.23;;
8704;SDS011;4389;41.932;25.904;2022-12-10T04:31:52;36.67;;;25.07;;
8704;SDS011;4389;41.932;25.904;2022-12-10T04:34:20;36.80;;;25.33;;
8704;SDS011;4389;41.932;25.904;2022-12-10T04:36:48;38.90;;;23.70;;
8704;SDS011;4389;41.932;25.904;2022-12-10T04:39:16;35.23;;;24.67;;
8704;SDS011;4389;41.932;25.904;2022-12-10T04:41:44;38.53;;;25.03;;
8704;SDS011;4389;41.932;25.904;2022-12-10T04:44:12;39.73;;;25.40;;
8704;SDS011;4389;41.932;25.904;2022-12-10T04:46:39;41.73;;;25.30;;
8704;SDS011;4389;41.932;25.904;2022-12-10T04:49:06;36.77;;;24.57;;
8704;SDS011;4389;41.932;25.904;2022-12-10T04:51:33;36.73;;;24.30;;
8704;SDS011;4389;41.932;25.904;2022-12-10T04:54:01;39.23;;;24.77;;
8704;SDS011;4389;41.932;25.904;2022-12-10T04:56:29;37.83;;;25.37;;
8704;SDS011;4389;41.932;25.904;2022-12-10T04:58:56;35.97;;;24.63;;
8704;SDS011;4389;41.932;25.904;2022-12-10T05:01:23;37.27;;;25.37;;
8704;SDS011;4389;41.932;25.904;2022-12-10T05:03:50;34.20;;;24.27;;
8704;SDS011;4389;41.932;25.904;2022-12-10T05:06:18;32.67;;;21.70;;
8704;SDS011;4389;41.932;25.904;2022-12-10T05:08:46;37.03;;;22.50;;
8704;SDS011;4389;41.932;25.904;2022-12-10T05:11:15;38.93;;;23.50;;
8704;SDS011;4389;41.932;25.904;2022-12-10T05:13:43;39.80;;;23.67;;
8704;SDS011;4389;41.932;25.904;2022-12-10T05:16:11;42.43;;;24.20;;
8704;SDS011;4389;41.932;25.904;2022-12-10T05:18:39;39.57;;;23.93;;
8704;SDS011;4389;41.932;25.904;2022-12-10T05:21:07;45.40;;;25.47;;
8704;SDS011;4389;41.932;25.904;2022-12-10T05:23:36;42.00;;;24.30;;
8704;SDS011;4389;41.932;25.904;2022-12-10T05:26:05;44.40;;;25.83;;
8704;SDS011;4389;41.932;25.904;2022-12-10T05:28:35;47.33;;;25.17;;
8704;SDS011;4389;41.932;25.904;2022-12-10T05:31:03;45.80;;;26.43;;
8704;SDS011;4389;41.932;25.904;2022-12-10T05:33:31;42.03;;;24.23;;
8704;SDS011;4389;41.932;25.904;2022-12-10T05:35:59;52.50;;;30.27;;
8704;SDS011;4389;41.932;25.904;2022-12-10T05:38:27;50.57;;;28.50;;
8704;SDS011;4389;41.932;25.904;2022-12-10T05:41:00;47.90;;;24.17;;
8704;SDS011;4389;41.932;25.904;2022-12-10T05:43:27;48.90;;;27.83;;
8704;SDS011;4389;41.932;25.904;2022-12-10T05:45:59;49.43;;;29.00;;
8704;SDS011;4389;41.932;25.904;2022-12-10T05:48:26;50.93;;;26.80;;
8704;SDS011;4389;41.932;25.904;2022-12-10T05:50:54;45.87;;;26.57;;
8704;SDS011;4389;41.932;25.904;2022-12-10T05:53:21;46.13;;;27.30;;
8704;SDS011;4389;41.932;25.904;2022-12-10T05:55:47;48.90;;;28.57;;
8704;SDS011;4389;41.932;25.904;2022-12-10T05:58:14;54.67;;;28.87;;
8704;SDS011;4389;41.932;25.904;2022-12-10T06:00:41;46.07;;;27.20;;
8704;SDS011;4389;41.932;25.904;2022-12-10T06:03:10;43.10;;;26.60;;
8704;SDS011;4389;41.932;25.904;2022-12-10T06:05:37;51.87;;;28.43;;
8704;SDS011;4389;41.932;25.904;2022-12-10T06:08:04;56.43;;;29.83;;
8704;SDS011;4389;41.932;25.904;2022-12-10T06:10:33;58.57;;;29.40;;
8704;SDS011;4389;41.932;25.904;2022-12-10T06:13:01;52.83;;;28.27;;
8704;SDS011;4389;41.932;25.904;2022-12-10T06:15:28;56.77;;;28.27;;
8704;SDS011;4389;41.932;25.904;2022-12-10T06:17:55;54.10;;;28.43;;
8704;SDS011;4389;41.932;25.904;2022-12-10T06:20:24;54.33;;;28.67;;
8704;SDS011;4389;41.932;25.904;2022-12-10T06:22:52;59.57;;;28.47;;
8704;SDS011;4389;41.932;25.904;2022-12-10T06:25:19;60.97;;;29.37;;
8704;SDS011;4389;41.932;25.904;2022-12-10T06:27:45;62.83;;;29.90;;
8704;SDS011;4389;41.932;25.904;2022-12-10T06:30:12;66.07;;;32.87;;
8704;SDS011;4389;41.932;25.904;2022-12-10T06:32:39;59.63;;;29.53;;
8704;SDS011;4389;41.932;25.904;2022-12-10T06:35:08;62.17;;;29.77;;
8704;SDS011;4389;41.932;25.904;2022-12-10T06:37:36;54.90;;;29.60;;
8704;SDS011;4389;41.932;25.904;2022-12-10T06:40:04;57.47;;;27.60;;
8704;SDS011;4389;41.932;25.904;2022-12-10T06:42:32;48.13;;;27.77;;
8704;SDS011;4389;41.932;25.904;2022-12-10T06:44:59;50.17;;;26.73;;
8704;SDS011;4389;41.932;25.904;2022-12-10T06:47:26;53.73;;;27.63;;
8704;SDS011;4389;41.932;25.904;2022-12-10T06:49:54;49.10;;;27.23;;
8704;SDS011;4389;41.932;25.904;2022-12-10T06:52:20;47.43;;;27.77;;
8704;SDS011;4389;41.932;25.904;2022-12-10T06:54:49;49.00;;;27.07;;
8704;SDS011;4389;41.932;25.904;2022-12-10T06:57:16;51.00;;;26.53;;
8704;SDS011;4389;41.932;25.904;2022-12-10T06:59:42;52.23;;;27.50;;
8704;SDS011;4389;41.932;25.904;2022-12-10T07:02:09;52.73;;;30.13;;
8704;SDS011;4389;41.932;25.904;2022-12-10T07:04:36;54.43;;;30.07;;
8704;SDS011;4389;41.932;25.904;2022-12-10T07:07:04;52.90;;;28.73;;
8704;SDS011;4389;41.932;25.904;2022-12-10T07:09:31;48.67;;;26.50;;
8704;SDS011;4389;41.932;25.904;2022-12-10T07:12:00;47.93;;;28.30;;
8704;SDS011;4389;41.932;25.904;2022-12-10T07:14:27;49.30;;;25.23;;
8704;SDS011;4389;41.932;25.904;2022-12-10T07:16:54;48.83;;;27.30;;
8704;SDS011;4389;41.932;25.904;2022-12-10T07:19:22;51.63;;;26.20;;
8704;SDS011;4389;41.932;25.904;2022-12-10T07:21:49;43.73;;;25.67;;
8704;SDS011;4389;41.932;25.904;2022-12-10T07:24:17;46.30;;;27.10;;
8704;SDS011;4389;41.932;25.904;2022-12-10T07:26:45;47.40;;;26.00;;
8704;SDS011;4389;41.932;25.904;2022-12-10T07:29:15;47.20;;;25.80;;
8704;SDS011;4389;41.932;25.904;2022-12-10T07:31:43;45.60;;;26.83;;
8704;SDS011;4389;41.932;25.904;2022-12-10T07:34:11;51.63;;;28.87;;
8704;SDS011;4389;41.932;25.904;2022-12-10T07:36:38;51.97;;;28.43;;
8704;SDS011;4389;41.932;25.904;2022-12-10T07:39:05;48.63;;;28.20;;
8704;SDS011;4389;41.932;25.904;2022-12-10T07:41:35;46.97;;;25.77;;
8704;SDS011;4389;41.932;25.904;2022-12-10T07:44:02;55.57;;;30.07;;
8704;SDS011;4389;41.932;25.904;2022-12-10T07:46:33;49.43;;;28.17;;
8704;SDS011;4389;41.932;25.904;2022-12-10T07:49:00;44.13;;;27.13;;
8704;SDS011;4389;41.932;25.904;2022-12-10T07:51:28;49.60;;;27.87;;
8704;SDS011;4389;41.932;25.904;2022-12-10T07:53:56;47.47;;;29.13;;
8704;SDS011;4389;41.932;25.904;2022-12-10T07:56:23;48.77;;;29.10;;
8704;SDS011;4389;41.932;25.904;2022-12-10T07:58:51;42.40;;;28.20;;
8704;SDS011;4389;41.932;25.904;2022-12-10T08:01:22;45.17;;;28.03;;
8704;SDS011;4389;41.932;25.904;2022-12-10T08:03:51;48.90;;;29.83;;
8704;SDS011;4389;41.932;25.904;2022-12-10T08:06:21;44.77;;;27.87;;
8704;SDS011;4389;41.932;25.904;2022-12-10T08:08:49;47.03;;;29.10;;
8704;SDS011;4389;41.932;25.904;2022-12-10T08:11:17;41.93;;;28.17;;
8704;SDS011;4389;41.932;25.904;2022-12-10T08:13:45;50.53;;;30.33;;
8704;SDS011;4389;41.932;25.904;2022-12-10T08:16:13;46.00;;;29.27;;
8704;SDS011;4389;41.932;25.904;2022-12-10T08:18:41;52.03;;;29.80;;
8704;SDS011;4389;41.932;25.904;2022-12-10T08:21:11;45.20;;;28.90;;
8704;SDS011;4389;41.932;25.904;2022-12-10T08:23:39;42.33;;;28.87;;
8704;SDS011;4389;41.932;25.904;2022-12-10T08:26:08;48.93;;;30.27;;
8704;SDS011;4389;41.932;25.904;2022-12-10T08:28:36;49.57;;;31.03;;
8704;SDS011;4389;41.932;25.904;2022-12-10T08:31:04;55.43;;;33.70;;
8704;SDS011;4389;41.932;25.904;2022-12-10T08:33:32;54.97;;;35.00;;
8704;SDS011;4389;41.932;25.904;2022-12-10T08:36:00;62.53;;;38.20;;
8704;SDS011;4389;41.932;25.904;2022-12-10T08:38:28;57.67;;;35.63;;
8704;SDS011;4389;41.932;25.904;2022-12-10T08:40:55;52.73;;;35.93;;
8704;SDS011;4389;41.932;25.904;2022-12-10T08:43:23;52.07;;;34.90;;
8704;SDS011;4389;41.932;25.904;2022-12-10T08:45:51;61.63;;;35.50;;
8704;SDS011;4389;41.932;25.904;2022-12-10T08:48:17;53.60;;;34.80;;
8704;SDS011;4389;41.932;25.904;2022-12-10T08:50:44;51.67;;;35.07;;
8704;SDS011;4389;41.932;25.904;2022-12-10T08:53:11;54.00;;;37.17;;
8704;SDS011;4389;41.932;25.904;2022-12-10T08:55:40;53.93;;;34.93;;
8704;SDS011;4389;41.932;25.904;2022-12-10T08:58:07;33.30;;;11.97;;
8704;SDS011;4389;41.932;25.904;2022-12-10T09:00:35;27.17;;;8.40;;
8704;SDS011;4389;41.932;25.904;2022-12-10T09:03:02;24.93;;;9.93;;
8704;SDS011;4389;41.932;25.904;2022-12-10T09:05:29;22.67;;;6.67;;
8704;SDS011;4389;41.932;25.904;2022-12-10T09:07:56;18.37;;;6.80;;
8704;SDS011;4389;41.932;25.904;2022-12-10T09:10:23;27.17;;;7.47;;
8704;SDS011;4389;41.932;25.904;2022-12-10T09:12:52;19.90;;;7.40;;
8704;SDS011;4389;41.932;25.904;2022-12-10T09:15:19;25.43;;;7.07;;
8704;SDS011;4389;41.932;25.904;2022-12-10T09:17:46;25.23;;;5.77;;
8704;SDS011;4389;41.932;25.904;2022-12-10T09:20:13;21.33;;;6.33;;
8704;SDS011;4389;41.932;25.904;2022-12-10T09:22:40;24.77;;;7.80;;
8704;SDS011;4389;41.932;25.904;2022-12-10T09:25:08;24.90;;;7.43;;
8704;SDS011;4389;41.932;25.904;2022-12-10T09:27:36;24.53;;;8.53;;
8704;SDS011;4389;41.932;25.904;2022-12-10T09:30:05;19.30;;;7.93;;
8704;SDS011;4389;41.932;25.904;2022-12-10T09:32:32;30.70;;;7.47;;
8704;SDS011;4389;41.932;25.904;2022-12-10T09:34:59;26.77;;;7.97;;
8704;SDS011;4389;41.932;25.904;2022-12-10T09:37:26;34.33;;;10.13;;
8704;SDS011;4389;41.932;25.904;2022-12-10T09:39:53;16.90;;;6.13;;
8704;SDS011;4389;41.932;25.904;2022-12-10T09:42:23;19.33;;;7.17;;
8704;SDS011;4389;41.932;25.904;2022-12-10T09:45:02;32.53;;;14.80;;
8704;SDS011;4389;41.932;25.904;2022-12-10T09:47:37;31.57;;;9.50;;
8704;SDS011;4389;41.932;25.904;2022-12-10T09:50:14;24.97;;;6.00;;
8704;SDS011;4389;41.932;25.904;2022-12-10T09:52:47;34.00;;;7.83;;
8704;SDS011;4389;41.932;25.904;2022-12-10T09:55:17;21.93;;;6.47;;
8704;SDS011;4389;41.932;25.904;2022-12-10T09:57:46;15.83;;;5.87;;
8704;SDS011;4389;41.932;25.904;2022-12-10T10:00:19;16.60;;;5.23;;
8704;SDS011;4389;41.932;25.904;2022-12-10T10:02:48;19.27;;;5.93;;
8704;SDS011;4389;41.932;25.904;2022-12-10T10:05:19;22.23;;;5.90;;
8704;SDS011;4389;41.932;25.904;2022-12-10T10:07:49;33.77;;;7.40;;
8704;SDS011;4389;41.932;25.904;2022-12-10T10:10:21;15.37;;;4.93;;
8704;SDS011;4389;41.932;25.904;2022-12-10T10:12:51;17.00;;;4.77;;
8704;SDS011;4389;41.932;25.904;2022-12-10T10:15:24;15.57;;;5.90;;
8704;SDS011;4389;41.932;25.904;2022-12-10T10:17:55;30.03;;;7.57;;
8704;SDS011;4389;41.932;25.904;2022-12-10T10:20:24;19.87;;;6.40;;
8704;SDS011;4389;41.932;25.904;2022-12-10T10:22:51;21.07;;;6.13;;
8704;SDS011;4389;41.932;25.904;2022-12-10T10:25:19;26.67;;;8.97;;
8704;SDS011;4389;41.932;25.904;2022-12-10T10:27:46;30.00;;;8.37;;
8704;SDS011;4389;41.932;25.904;2022-12-10T10:30:14;19.30;;;7.43;;
8704;SDS011;4389;41.932;25.904;2022-12-10T10:32:51;35.63;;;9.33;;
8704;SDS011;4389;41.932;25.904;2022-12-10T10:35:23;24.47;;;6.87;;
8704;SDS011;4389;41.932;25.904;2022-12-10T10:37:55;33.60;;;9.30;;
8704;SDS011;4389;41.932;25.904;2022-12-10T10:40:25;27.00;;;9.47;;
8704;SDS011;4389;41.932;25.904;2022-12-10T10:42:55;15.93;;;6.03;;
8704;SDS011;4389;41.932;25.904;2022-12-10T10:48:17;22.00;;;7.37;;
8704;SDS011;4389;41.932;25.904;2022-12-10T10:50:46;28.40;;;11.07;;
8704;SDS011;4389;41.932;25.904;2022-12-10T10:56:10;18.33;;;6.53;;
8704;SDS011;4389;41.932;25.904;2022-12-10T10:58:55;26.77;;;8.47;;
8704;SDS011;4389;41.932;25.904;2022-12-10T11:01:25;18.03;;;6.57;;
8704;SDS011;4389;41.932;25.904;2022-12-10T11:03:55;29.47;;;8.60;;
8704;SDS011;4389;41.932;25.904;2022-12-10T11:06:24;22.57;;;8.03;;
8704;SDS011;4389;41.932;25.904;2022-12-10T11:08:54;43.53;;;8.37;;
8704;SDS011;4389;41.932;25.904;2022-12-10T11:11:25;30.20;;;6.60;;
8704;SDS011;4389;41.932;25.904;2022-12-10T11:14:12;16.60;;;6.03;;
8704;SDS011;4389;41.932;25.904;2022-12-10T11:16:40;18.03;;;6.77;;
8704;SDS011;4389;41.932;25.904;2022-12-10T11:19:16;31.00;;;8.63;;
8704;SDS011;4389;41.932;25.904;2022-12-10T11:21:46;23.40;;;8.63;;
8704;SDS011;4389;41.932;25.904;2022-12-10T11:24:15;20.27;;;5.67;;
8704;SDS011;4389;41.932;25.904;2022-12-10T11:26:56;24.63;;;6.27;;
8704;SDS011;4389;41.932;25.904;2022-12-10T11:29:36;14.13;;;5.23;;
8704;SDS011;4389;41.932;25.904;2022-12-10T11:32:20;23.23;;;5.77;;
8704;SDS011;4389;41.932;25.904;2022-12-10T11:35:01;17.20;;;5.50;;
8704;SDS011;4389;41.932;25.904;2022-12-10T11:37:36;16.80;;;4.23;;
8704;SDS011;4389;41.932;25.904;2022-12-10T11:43:02;21.93;;;4.90;;
8704;SDS011;4389;41.932;25.904;2022-12-10T11:45:43;14.73;;;4.33;;
8704;SDS011;4389;41.932;25.904;2022-12-10T11:48:24;15.33;;;4.60;;
8704;SDS011;4389;41.932;25.904;2022-12-10T11:51:02;21.53;;;5.57;;
8704;SDS011;4389;41.932;25.904;2022-12-10T11:53:37;12.43;;;4.60;;
8704;SDS011;4389;41.932;25.904;2022-12-10T11:56:21;9.70;;;4.33;;
8704;SDS011;4389;41.932;25.904;2022-12-10T11:59:04;16.77;;;4.73;;
8704;SDS011;4389;41.932;25.904;2022-12-10T12:01:45;18.37;;;4.70;;
8704;SDS011;4389;41.932;25.904;2022-12-10T12:04:30;16.40;;;5.90;;
8704;SDS011;4389;41.932;25.904;2022-12-10T12:07:13;22.20;;;4.97;;
8704;SDS011;4389;41.932;25.904;2022-12-10T12:09:57;16.40;;;4.70;;
8704;SDS011;4389;41.932;25.904;2022-12-10T12:12:42;18.37;;;4.37;;
8704;SDS011;4389;41.932;25.904;2022-12-10T12:15:18;13.50;;;4.80;;
8704;SDS011;4389;41.932;25.904;2022-12-10T12:17:50;16.33;;;4.83;;
8704;SDS011;4389;41.932;25.904;2022-12-10T12:20:23;11.83;;;4.50;;
8704;SDS011;4389;41.932;25.904;2022-12-10T12:22:57;18.03;;;5.50;;
8704;SDS011;4389;41.932;25.904;2022-12-10T12:25:29;11.97;;;6.00;;
8704;SDS011;4389;41.932;25.904;2022-12-10T12:28:03;13.93;;;4.63;;
8704;SDS011;4389;41.932;25.904;2022-12-10T12:30:36;19.10;;;4.37;;
8704;SDS011;4389;41.932;25.904;2022-12-10T12:33:05;8.90;;;3.57;;
8704;SDS011;4389;41.932;25.904;2022-12-10T12:35:39;13.30;;;4.27;;
8704;SDS011;4389;41.932;25.904;2022-12-10T12:38:18;13.30;;;4.27;;
8704;SDS011;4389;41.932;25.904;2022-12-10T12:40:51;11.43;;;3.63;;
8704;SDS011;4389;41.932;25.904;2022-12-10T12:43:22;12.40;;;3.47;;
8704;SDS011;4389;41.932;25.904;2022-12-10T12:45:55;14.70;;;4.03;;
8704;SDS011;4389;41.932;25.904;2022-12-10T12:48:23;21.57;;;4.33;;
8704;SDS011;4389;41.932;25.904;2022-12-10T12:50:57;13.90;;;4.50;;
8704;SDS011;4389;41.932;25.904;2022-12-10T12:53:29;12.87;;;5.27;;
8704;SDS011;4389;41.932;25.904;2022-12-10T12:55:56;16.77;;;4.20;;
8704;SDS011;4389;41.932;25.904;2022-12-10T12:58:33;19.83;;;4.57;;
8704;SDS011;4389;41.932;25.904;2022-12-10T13:01:06;15.87;;;3.57;;
8704;SDS011;4389;41.932;25.904;2022-12-10T13:03:43;12.70;;;4.57;;
8704;SDS011;4389;41.932;25.904;2022-12-10T13:06:15;16.23;;;4.40;;
8704;SDS011;4389;41.932;25.904;2022-12-10T13:08:49;18.70;;;4.70;;
8704;SDS011;4389;41.932;25.904;2022-12-10T13:11:29;14.47;;;5.00;;
8704;SDS011;4389;41.932;25.904;2022-12-10T13:14:02;14.27;;;4.20;;
8704;SDS011;4389;41.932;25.904;2022-12-10T13:16:48;13.00;;;4.47;;
8704;SDS011;4389;41.932;25.904;2022-12-10T13:19:29;12.50;;;4.50;;
8704;SDS011;4389;41.932;25.904;2022-12-10T13:21:58;15.50;;;5.47;;
8704;SDS011;4389;41.932;25.904;2022-12-10T13:27:28;13.20;;;4.90;;
8704;SDS011;4389;41.932;25.904;2022-12-10T13:30:00;13.47;;;4.57;;
8704;SDS011;4389;41.932;25.904;2022-12-10T13:35:22;19.23;;;5.13;;
8704;SDS011;4389;41.932;25.904;2022-12-10T13:37:56;20.47;;;5.97;;
8704;SDS011;4389;41.932;25.904;2022-12-10T13:40:38;18.10;;;5.30;;
8704;SDS011;4389;41.932;25.904;2022-12-10T13:43:26;15.30;;;4.53;;
8704;SDS011;4389;41.932;25.904;2022-12-10T13:46:25;19.33;;;5.93;;
8704;SDS011;4389;41.932;25.904;2022-12-10T13:48:56;30.30;;;5.63;;
8704;SDS011;4389;41.932;25.904;2022-12-10T13:51:36;14.10;;;4.90;;
8704;SDS011;4389;41.932;25.904;2022-12-10T13:54:23;19.63;;;6.60;;
8704;SDS011;4389;41.932;25.904;2022-12-10T13:57:11;13.67;;;4.87;;
8704;SDS011;4389;41.932;25.904;2022-12-10T13:59:52;17.50;;;4.97;;
8704;SDS011;4389;41.932;25.904;2022-12-10T14:05:27;23.27;;;6.13;;
8704;SDS011;4389;41.932;25.904;2022-12-10T14:08:13;21.30;;;4.97;;
8704;SDS011;4389;41.932;25.904;2022-12-10T14:10:44;10.47;;;4.77;;
8704;SDS011;4389;41.932;25.904;2022-12-10T14:13:15;24.80;;;6.60;;
8704;SDS011;4389;41.932;25.904;2022-12-10T14:15:47;25.67;;;6.93;;
8704;SDS011;4389;41.932;25.904;2022-12-10T14:18:20;26.57;;;6.20;;
8704;SDS011;4389;41.932;25.904;2022-12-10T14:20:49;25.03;;;6.07;;
8704;SDS011;4389;41.932;25.904;2022-12-10T14:23:23;16.47;;;6.03;;
8704;SDS011;4389;41.932;25.904;2022-12-10T14:26:05;23.13;;;5.93;;
8704;SDS011;4389;41.932;25.904;2022-12-10T14:28:39;18.00;;;5.87;;
8704;SDS011;4389;41.932;25.904;2022-12-10T14:31:10;30.17;;;7.27;;
8704;SDS011;4389;41.932;25.904;2022-12-10T14:33:41;21.57;;;5.90;;
8704;SDS011;4389;41.932;25.904;2022-12-10T14:36:14;22.43;;;6.70;;
8704;SDS011;4389;41.932;25.904;2022-12-10T14:38:45;18.97;;;5.73;;
8704;SDS011;4389;41.932;25.904;2022-12-10T14:41:15;23.30;;;6.43;;
8704;SDS011;4389;41.932;25.904;2022-12-10T14:43:46;20.30;;;6.00;;
8704;SDS011;4389;41.932;25.904;2022-12-10T14:46:16;21.77;;;7.27;;
8704;SDS011;4389;41.932;25.904;2022-12-10T14:48:46;17.83;;;7.73;;
8704;SDS011;4389;41.932;25.904;2022-12-10T14:51:15;25.77;;;7.20;;
8704;SDS011;4389;41.932;25.904;2022-12-10T14:53:44;19.80;;;6.67;;
8704;SDS011;4389;41.932;25.904;2022-12-10T14:56:14;23.07;;;6.03;;
8704;SDS011;4389;41.932;25.904;2022-12-10T14:58:48;17.37;;;5.77;;
8704;SDS011;4389;41.932;25.904;2022-12-10T15:01:22;26.23;;;6.13;;
8704;SDS011;4389;41.932;25.904;2022-12-10T15:03:53;17.73;;;5.67;;
8704;SDS011;4389;41.932;25.904;2022-12-10T15:06:22;16.23;;;5.67;;
8704;SDS011;4389;41.932;25.904;2022-12-10T15:08:49;22.20;;;6.00;;
8704;SDS011;4389;41.932;25.904;2022-12-10T15:11:21;27.73;;;6.50;;
8704;SDS011;4389;41.932;25.904;2022-12-10T15:13:52;19.40;;;7.00;;
8704;SDS011;4389;41.932;25.904;2022-12-10T15:16:27;20.20;;;6.10;;
8704;SDS011;4389;41.932;25.904;2022-12-10T15:19:06;19.87;;;7.03;;